Time;durP1;ratioP1;P1;durP2;ratioP2;P2;SDS_P1;SDS_P2;PMS_P1;PMS_P2;Temp;Humidity;BMP_temperature;BMP_pressure;BME280_temperature;BME280_humidity;BME280_pressure;Samples;Min_cycle;Max_cycle;Signal;HPM_P1;HPM_P2
2021/03/13 00:00:14;;;;;;;1.10;0.30;;;6.20;99.90;;;;;;5014140;28;20022;-78
2021/03/13 00:02:43;;;;;;;6.95;1.60;;;6.20;99.90;;;;;;5036666;28;20022;-80
2021/03/13 00:05:12;;;;;;;1.80;0.95;;;6.20;99.90;;;;;;5036689;28;20018;-80
2021/03/13 00:07:38;;;;;;;0.05;0.05;;;6.20;99.90;;;;;;5018886;28;20564;-78
2021/03/13 00:10:05;;;;;;;2.30;1.63;;;6.20;99.90;;;;;;5035521;28;20029;-77
2021/03/13 00:12:31;;;;;;;1.15;1.05;;;6.20;99.90;;;;;;5035354;28;20029;-78
2021/03/13 00:14:57;;;;;;;1.03;0.83;;;6.20;99.90;;;;;;5035791;28;20048;-78
2021/03/13 00:17:23;;;;;;;7.90;2.20;;;6.20;99.90;;;;;;5035389;28;20021;-78
2021/03/13 00:19:49;;;;;;;8.73;1.73;;;6.20;99.90;;;;;;5036518;28;20029;-77
2021/03/13 00:22:14;;;;;;;0.90;0.60;;;6.10;99.90;;;;;;5010123;28;20018;-78
2021/03/13 00:24:41;;;;;;;8.13;0.52;;;6.10;99.90;;;;;;5018680;28;20028;-78
2021/03/13 00:27:07;;;;;;;3.10;0.80;;;6.10;99.90;;;;;;5017519;28;20503;-80
2021/03/13 00:29:33;;;;;;;0.60;0.60;;;6.20;99.90;;;;;;5035705;28;20033;-79
2021/03/13 00:31:58;;;;;;;13.47;3.00;;;6.20;99.90;;;;;;5018466;28;20080;-79
2021/03/13 00:34:24;;;;;;;3.17;1.60;;;6.30;99.90;;;;;;5012856;28;20033;-77
2021/03/13 00:36:50;;;;;;;5.13;0.53;;;6.30;99.90;;;;;;5035498;28;20044;-81
2021/03/13 00:39:17;;;;;;;1.05;0.95;;;6.30;99.90;;;;;;5014725;28;20317;-87
2021/03/13 00:41:43;;;;;;;1.35;0.73;;;6.40;99.90;;;;;;5018506;28;20037;-79
2021/03/13 00:44:08;;;;;;;0.77;0.77;;;6.40;99.90;;;;;;5017458;28;20294;-79
2021/03/13 00:46:36;;;;;;;0.10;0.10;;;6.40;99.90;;;;;;5035942;28;20025;-79
2021/03/13 00:49:05;;;;;;;0.17;0.17;;;6.40;99.90;;;;;;5034337;28;20021;-79
2021/03/13 00:51:31;;;;;;;0.55;0.55;;;6.40;99.90;;;;;;5015179;28;20030;-80
2021/03/13 00:53:56;;;;;;;3.58;2.08;;;6.40;99.90;;;;;;5015413;28;20052;-86
2021/03/13 00:56:22;;;;;;;3.43;1.37;;;6.40;99.90;;;;;;5019059;28;20037;-80
2021/03/13 00:58:48;;;;;;;0.40;0.30;;;6.40;99.90;;;;;;5018713;28;20044;-79
2021/03/13 01:01:14;;;;;;;1.67;1.27;;;6.50;99.90;;;;;;5012832;28;20075;-80
2021/03/13 01:03:40;;;;;;;2.53;1.08;;;6.40;99.90;;;;;;5018257;28;20324;-78
2021/03/13 01:06:05;;;;;;;0.30;0.30;;;6.50;99.90;;;;;;5034431;28;20025;-79
2021/03/13 01:08:31;;;;;;;0.23;0.23;;;6.40;99.90;;;;;;5013485;28;20030;-77
2021/03/13 01:10:57;;;;;;;0.17;0.17;;;6.40;99.90;;;;;;5035617;28;20159;-80
2021/03/13 01:13:23;;;;;;;0.80;0.80;;;6.40;99.90;;;;;;5035703;28;20027;-79
2021/03/13 01:15:50;;;;;;;1.15;1.05;;;6.30;99.90;;;;;;5014082;28;20032;-79
2021/03/13 01:18:18;;;;;;;0.85;0.85;;;6.30;99.90;;;;;;5029136;28;20021;-76
2021/03/13 01:20:45;;;;;;;4.13;0.30;;;6.30;99.90;;;;;;5005759;28;20030;-78
2021/03/13 01:23:11;;;;;;;1.38;0.95;;;6.20;99.90;;;;;;5032570;28;20506;-78
2021/03/13 01:25:37;;;;;;;0.55;0.25;;;6.20;99.90;;;;;;5018187;28;20060;-78
2021/03/13 01:28:02;;;;;;;0.37;0.37;;;6.10;99.90;;;;;;5011237;28;20045;-79
2021/03/13 01:30:28;;;;;;;0.70;0.55;;;6.10;99.90;;;;;;5009426;28;20029;-78
2021/03/13 01:32:54;;;;;;;4.88;2.22;;;6.10;99.90;;;;;;5016340;28;20049;-76
2021/03/13 01:35:21;;;;;;;0.45;0.45;;;6.10;99.90;;;;;;5002799;28;20094;-80
2021/03/13 01:37:47;;;;;;;0.65;0.30;;;6.10;99.90;;;;;;5017534;28;20032;-78
2021/03/13 01:40:17;;;;;;;0.10;0.10;;;6.00;99.90;;;;;;5016838;28;20030;-78
2021/03/13 01:42:47;;;;;;;0.40;0.40;;;6.00;99.90;;;;;;5013782;28;20029;-80
2021/03/13 01:45:16;;;;;;;2.25;1.05;;;6.00;99.90;;;;;;5016246;28;20036;-76
2021/03/13 01:47:43;;;;;;;1.92;1.30;;;6.00;99.90;;;;;;5015971;28;20099;-76
2021/03/13 01:50:10;;;;;;;0.17;0.17;;;6.00;99.90;;;;;;5011401;28;20037;-81
2021/03/13 01:52:36;;;;;;;3.03;1.45;;;6.00;99.90;;;;;;5014703;28;20024;-78
2021/03/13 01:55:07;;;;;;;0.38;0.38;;;6.00;99.90;;;;;;5031869;28;20029;-80
2021/03/13 01:57:33;;;;;;;0.38;0.38;;;6.00;99.90;;;;;;5016301;28;20084;-82
2021/03/13 01:59:59;;;;;;;6.28;0.73;;;6.00;99.90;;;;;;5015626;28;20030;-77
2021/03/13 02:02:24;;;;;;;0.77;0.77;;;6.00;99.90;;;;;;5030104;28;20021;-79
2021/03/13 02:04:50;;;;;;;0.30;0.27;;;5.90;99.90;;;;;;5026030;28;20037;-80
2021/03/13 02:07:42;;;;;;;0.33;0.33;;;5.90;99.90;;;;;;5034495;28;20040;-77
2021/03/13 02:10:15;;;;;;;0.00;0.00;;;5.90;99.90;;;;;;5005244;28;20036;-77
2021/03/13 02:12:43;;;;;;;0.45;0.10;;;5.80;99.90;;;;;;5016291;28;20120;-76
2021/03/13 02:15:40;;;;;;;0.70;0.32;;;5.80;99.90;;;;;;5025852;28;20108;-75
2021/03/13 02:18:21;;;;;;;0.32;0.32;;;5.70;99.90;;;;;;4985959;28;20053;-76
2021/03/13 02:21:05;;;;;;;0.20;0.20;;;5.80;99.90;;;;;;5015559;28;20048;-80
2021/03/13 02:23:43;;;;;;;0.70;0.70;;;5.80;99.90;;;;;;5033468;28;20064;-78
2021/03/13 02:26:23;;;;;;;0.40;0.32;;;5.70;99.90;;;;;;5031611;28;20310;-78
2021/03/13 02:29:15;;;;;;;9.18;1.33;;;5.70;99.90;;;;;;5034782;28;20025;-77
2021/03/13 02:31:48;;;;;;;0.25;0.25;;;5.80;99.90;;;;;;5012889;28;20049;-76
2021/03/13 02:34:23;;;;;;;0.10;0.10;;;5.80;99.90;;;;;;5015727;28;20071;-76
2021/03/13 02:36:51;;;;;;;2.28;0.68;;;5.80;99.90;;;;;;5011675;28;20172;-76
2021/03/13 02:39:22;;;;;;;0.50;0.45;;;5.80;99.90;;;;;;5033896;28;20017;-79
2021/03/13 02:41:50;;;;;;;3.20;0.75;;;5.70;99.90;;;;;;5022420;28;20032;-76
2021/03/13 02:44:20;;;;;;;0.95;0.90;;;5.80;99.90;;;;;;5012068;28;20032;-76
2021/03/13 02:46:48;;;;;;;0.82;0.63;;;5.70;99.90;;;;;;5029690;28;20035;-76
2021/03/13 02:49:14;;;;;;;0.55;0.50;;;5.80;99.90;;;;;;5033037;28;20466;-77
2021/03/13 02:51:42;;;;;;;0.73;0.73;;;5.80;99.90;;;;;;5016243;28;20495;-76
2021/03/13 02:54:10;;;;;;;1.08;0.93;;;5.80;99.90;;;;;;5007993;28;20144;-76
2021/03/13 02:56:38;;;;;;;0.40;0.40;;;5.80;99.90;;;;;;5030942;28;20021;-76
2021/03/13 02:59:05;;;;;;;0.22;0.22;;;5.80;99.90;;;;;;5032382;28;20116;-76
2021/03/13 03:01:33;;;;;;;0.20;0.20;;;5.80;99.90;;;;;;5021240;28;20022;-78
2021/03/13 03:04:01;;;;;;;5.20;0.80;;;5.80;99.90;;;;;;5033795;28;20029;-78
2021/03/13 03:06:30;;;;;;;0.20;0.20;;;5.80;99.90;;;;;;5031704;28;20486;-76
2021/03/13 03:08:56;;;;;;;0.15;0.15;;;5.80;99.90;;;;;;5033443;28;20044;-75
2021/03/13 03:11:23;;;;;;;0.90;0.90;;;5.80;99.90;;;;;;5021725;28;20092;-76
2021/03/13 03:13:52;;;;;;;0.55;0.50;;;5.80;99.90;;;;;;5029306;28;20037;-79
2021/03/13 03:16:20;;;;;;;0.10;0.10;;;5.80;99.90;;;;;;5023402;28;20022;-76
2021/03/13 03:18:49;;;;;;;0.75;0.73;;;5.80;99.90;;;;;;5031376;28;20057;-76
2021/03/13 03:21:18;;;;;;;0.75;0.75;;;5.80;99.90;;;;;;5033618;28;20052;-77
2021/03/13 03:23:45;;;;;;;2.55;1.60;;;5.90;99.90;;;;;;5032223;28;20439;-78
2021/03/13 03:26:11;;;;;;;;;;;5.90;99.90;;;;;;5032082;28;20569;-77
2021/03/13 03:28:37;;;;;;;1.00;0.95;;;5.90;99.90;;;;;;5036584;28;19915;-79
2021/03/13 03:31:03;;;;;;;0.63;0.63;;;5.90;99.90;;;;;;5019605;28;20710;-79
2021/03/13 03:33:28;;;;;;;0.50;0.50;;;5.90;99.90;;;;;;5019414;28;20045;-81
2021/03/13 03:35:54;;;;;;;0.85;0.47;;;5.90;99.90;;;;;;5020247;28;20435;-77
2021/03/13 03:38:20;;;;;;;0.90;0.67;;;5.90;99.90;;;;;;5014728;28;20022;-76
2021/03/13 03:40:46;;;;;;;0.87;0.83;;;5.90;99.90;;;;;;5010425;28;20076;-79
2021/03/13 03:43:33;;;;;;;1.35;0.35;;;5.90;99.90;;;;;;5018029;28;20033;-77
2021/03/13 03:46:00;;;;;;;1.73;0.82;;;6.00;99.90;;;;;;5027641;28;20490;-82
2021/03/13 03:48:27;;;;;;;0.85;0.60;;;5.90;99.90;;;;;;5014325;28;20116;-78
2021/03/13 03:50:55;;;;;;;0.17;0.17;;;6.00;99.90;;;;;;5036480;28;20108;-79
2021/03/13 03:53:28;;;;;;;2.47;0.40;;;5.90;99.90;;;;;;5013423;28;20030;-81
2021/03/13 03:55:56;;;;;;;3.28;1.77;;;5.90;99.90;;;;;;5019032;28;20104;-84
2021/03/13 03:58:26;;;;;;;1.00;0.80;;;6.00;99.90;;;;;;5030951;28;20037;-84
2021/03/13 04:00:53;;;;;;;0.17;0.10;;;6.00;99.90;;;;;;5036548;28;20325;-81
2021/03/13 04:03:22;;;;;;;3.03;0.40;;;6.00;99.90;;;;;;5037061;28;20029;-79
2021/03/13 04:05:48;;;;;;;3.00;0.85;;;6.00;99.90;;;;;;5035921;28;20448;-80
2021/03/13 04:08:16;;;;;;;0.30;0.30;;;6.00;99.90;;;;;;5022237;28;20109;-80
2021/03/13 04:10:45;;;;;;;0.35;0.35;;;6.00;99.90;;;;;;5019482;28;20033;-81
2021/03/13 04:13:11;;;;;;;0.47;0.38;;;6.00;99.90;;;;;;5036684;28;20029;-81
2021/03/13 04:15:40;;;;;;;0.30;0.30;;;6.00;99.90;;;;;;5011631;28;20463;-80
2021/03/13 04:18:06;;;;;;;2.67;0.68;;;6.10;99.90;;;;;;5035555;28;20111;-80
2021/03/13 04:20:32;;;;;;;0.40;0.40;;;6.10;99.90;;;;;;5015280;28;20021;-79
2021/03/13 04:22:58;;;;;;;0.90;0.52;;;6.10;99.90;;;;;;5016385;28;20025;-77
2021/03/13 04:25:26;;;;;;;1.02;1.02;;;6.10;99.90;;;;;;5028336;28;20025;-80
2021/03/13 04:27:52;;;;;;;0.10;0.10;;;6.10;99.90;;;;;;5025252;28;20120;-79
2021/03/13 04:30:19;;;;;;;0.45;0.38;;;6.20;99.90;;;;;;5017109;28;20148;-78
2021/03/13 04:32:48;;;;;;;0.55;0.40;;;6.10;99.90;;;;;;5036242;28;20054;-78
2021/03/13 04:35:15;;;;;;;0.05;0.05;;;6.20;99.90;;;;;;5018955;28;20033;-77
2021/03/13 04:37:44;;;;;;;10.75;0.68;;;6.10;99.90;;;;;;5024955;28;20046;-81
2021/03/13 04:40:12;;;;;;;0.32;0.32;;;6.20;99.90;;;;;;5034964;28;20033;-77
2021/03/13 04:42:39;;;;;;;5.43;0.98;;;6.20;99.90;;;;;;5036155;28;20025;-76
2021/03/13 04:45:09;;;;;;;0.75;0.70;;;6.20;99.90;;;;;;5036695;28;20041;-80
2021/03/13 04:47:46;;;;;;;1.08;0.80;;;6.30;99.90;;;;;;5026944;28;20325;-76
2021/03/13 04:50:20;;;;;;;0.00;0.00;;;6.30;99.90;;;;;;5016854;28;20037;-79
2021/03/13 04:52:47;;;;;;;0.88;0.45;;;6.30;99.90;;;;;;5036582;28;20037;-78
2021/03/13 04:55:13;;;;;;;0.20;0.20;;;6.40;99.90;;;;;;5035376;28;20048;-81
2021/03/13 04:57:39;;;;;;;0.03;0.03;;;6.40;99.90;;;;;;5035761;28;20025;-83
2021/03/13 05:00:08;;;;;;;0.20;0.20;;;6.40;99.90;;;;;;5018833;28;20029;-82
2021/03/13 05:02:34;;;;;;;0.47;0.28;;;6.40;99.90;;;;;;5007202;28;20083;-77
2021/03/13 05:05:00;;;;;;;1.58;0.43;;;6.50;99.90;;;;;;5034855;28;20060;-78
2021/03/13 05:07:26;;;;;;;0.00;0.00;;;6.50;99.90;;;;;;5007796;28;20030;-78
2021/03/13 05:09:52;;;;;;;0.47;0.30;;;6.50;99.90;;;;;;5034087;28;20037;-79
2021/03/13 05:12:18;;;;;;;0.22;0.22;;;6.60;99.90;;;;;;5036185;28;20030;-76
2021/03/13 05:14:46;;;;;;;2.27;0.57;;;6.50;99.90;;;;;;5016690;28;20439;-76
2021/03/13 05:17:11;;;;;;;0.03;0.03;;;6.60;99.90;;;;;;5006954;28;20539;-80
2021/03/13 05:19:37;;;;;;;9.23;1.50;;;6.50;99.90;;;;;;5033499;28;20112;-78
2021/03/13 05:22:02;;;;;;;2.30;1.15;;;6.60;99.90;;;;;;5034785;28;20021;-80
2021/03/13 05:24:28;;;;;;;4.97;1.30;;;6.60;99.90;;;;;;5006649;28;20332;-76
2021/03/13 05:26:54;;;;;;;0.00;0.00;;;6.60;99.90;;;;;;5009258;28;20032;-77
2021/03/13 05:29:20;;;;;;;1.23;1.07;;;6.60;99.90;;;;;;5017711;28;20478;-78
2021/03/13 05:31:45;;;;;;;1.90;1.60;;;6.60;99.90;;;;;;5035140;28;20035;-76
2021/03/13 05:34:11;;;;;;;0.13;0.13;;;6.60;99.90;;;;;;5024288;28;20046;-75
2021/03/13 05:36:37;;;;;;;0.30;0.30;;;6.60;99.90;;;;;;5033025;28;20079;-76
2021/03/13 05:39:03;;;;;;;21.23;0.53;;;6.60;99.90;;;;;;5032202;28;20037;-79
2021/03/13 05:41:31;;;;;;;1.35;0.65;;;6.60;99.90;;;;;;5015476;28;20643;-77
2021/03/13 05:44:00;;;;;;;0.00;0.00;;;6.70;99.90;;;;;;5017365;28;20033;-79
2021/03/13 05:46:34;;;;;;;0.47;0.40;;;6.70;99.90;;;;;;5010509;28;20121;-75
2021/03/13 05:49:05;;;;;;;0.45;0.45;;;6.70;99.90;;;;;;5005224;28;20052;-84
2021/03/13 05:51:42;;;;;;;0.00;0.00;;;6.10;99.90;;;;;;5018244;28;20017;-83
2021/03/13 05:54:08;;;;;;;0.10;0.10;;;5.30;99.90;;;;;;5032165;28;20108;-77
2021/03/13 05:56:34;;;;;;;0.00;0.00;;;5.00;99.90;;;;;;5035139;28;20029;-77
2021/03/13 05:59:01;;;;;;;0.00;0.00;;;4.90;99.90;;;;;;5034676;28;20029;-76
2021/03/13 06:01:28;;;;;;;0.00;0.00;;;4.90;99.90;;;;;;5034895;28;20025;-77
2021/03/13 06:03:55;;;;;;;0.28;0.28;;;4.90;99.90;;;;;;5014614;28;20120;-76
2021/03/13 06:06:22;;;;;;;1.00;0.32;;;5.00;99.90;;;;;;5027868;28;20037;-77
2021/03/13 06:08:49;;;;;;;0.00;0.00;;;5.10;99.90;;;;;;5030586;28;20112;-75
2021/03/13 06:11:17;;;;;;;0.00;0.00;;;5.20;99.90;;;;;;5025103;28;20104;-75
2021/03/13 06:13:43;;;;;;;0.38;0.38;;;5.30;99.90;;;;;;5013266;28;20100;-77
2021/03/13 06:16:09;;;;;;;0.17;0.17;;;5.40;99.90;;;;;;5032723;28;20021;-78
2021/03/13 06:18:56;;;;;;;0.77;0.77;;;5.50;99.90;;;;;;5016928;28;20799;-77
2021/03/13 06:21:32;;;;;;;1.15;0.38;;;5.70;99.90;;;;;;5016383;28;20026;-82
2021/03/13 06:24:03;;;;;;;0.00;0.00;;;5.80;99.90;;;;;;5030093;28;20057;-77
2021/03/13 06:26:48;;;;;;;0.40;0.40;;;5.90;99.90;;;;;;5033987;28;20083;-79
2021/03/13 06:29:15;;;;;;;20.30;1.43;;;6.00;99.90;;;;;;5034841;28;20025;-78
2021/03/13 06:31:41;;;;;;;13.90;0.55;;;6.00;99.90;;;;;;5034263;28;20025;-76
2021/03/13 06:34:07;;;;;;;32.73;0.83;;;6.00;99.90;;;;;;5011614;28;20049;-82
2021/03/13 06:36:32;;;;;;;12.53;0.30;;;6.10;99.90;;;;;;5031249;28;20331;-78
2021/03/13 06:38:58;;;;;;;4.47;1.23;;;6.10;99.90;;;;;;5029195;28;20026;-79
2021/03/13 06:41:25;;;;;;;0.37;0.37;;;6.10;99.90;;;;;;5014493;28;20082;-85
2021/03/13 06:43:58;;;;;;;0.00;0.00;;;6.20;99.90;;;;;;5035602;28;20113;-86
2021/03/13 06:46:31;;;;;;;0.63;0.57;;;6.20;99.90;;;;;;5016119;28;20116;-75
2021/03/13 06:48:58;;;;;;;0.00;0.00;;;6.30;99.90;;;;;;5033166;28;20025;-84
2021/03/13 06:51:36;;;;;;;8.48;1.20;;;6.20;99.90;;;;;;5023935;28;20050;-76
2021/03/13 06:54:14;;;;;;;35.28;1.85;;;6.20;99.90;;;;;;5015063;28;20024;-78
2021/03/13 06:56:54;;;;;;;8.23;0.30;;;6.20;99.90;;;;;;5010129;28;20364;-79
2021/03/13 06:59:35;;;;;;;0.25;0.25;;;6.30;99.90;;;;;;5027426;28;20018;-76
2021/03/13 07:02:06;;;;;;;0.40;0.40;;;6.30;99.90;;;;;;5012796;28;20411;-76
2021/03/13 07:04:39;;;;;;;0.00;0.00;;;6.30;99.90;;;;;;5028646;28;20028;-81
2021/03/13 07:07:06;;;;;;;3.83;1.95;;;6.40;99.90;;;;;;5015502;28;20044;-76
2021/03/13 07:09:49;;;;;;;4.85;1.60;;;6.40;99.90;;;;;;5014880;28;20331;-82
2021/03/13 07:12:35;;;;;;;0.60;0.38;;;6.40;99.90;;;;;;5029107;28;20026;-77
2021/03/13 07:15:24;;;;;;;16.75;0.80;;;6.40;99.90;;;;;;5029818;28;20324;-87
2021/03/13 07:18:00;;;;;;;0.25;0.25;;;6.40;99.90;;;;;;5032972;28;20036;-79
2021/03/13 07:20:32;;;;;;;0.25;0.25;;;6.40;99.90;;;;;;5016206;28;20026;-79
2021/03/13 07:23:01;;;;;;;0.20;0.20;;;6.40;99.90;;;;;;5013101;28;20459;-83
2021/03/13 07:25:28;;;;;;;0.00;0.00;;;6.50;99.90;;;;;;5033686;28;20045;-78
2021/03/13 07:27:56;;;;;;;1.35;1.25;;;6.50;99.90;;;;;;5012117;28;20052;-82
2021/03/13 07:30:22;;;;;;;0.82;0.68;;;6.60;99.90;;;;;;5030105;28;20305;-83
2021/03/13 07:32:58;;;;;;;11.73;2.80;;;6.70;99.90;;;;;;5030155;28;20053;-83
2021/03/13 07:35:27;;;;;;;0.70;0.70;;;6.70;99.90;;;;;;5011164;28;20314;-81
2021/03/13 07:37:55;;;;;;;1.25;0.88;;;6.80;99.90;;;;;;5033321;28;20022;-79
2021/03/13 07:40:23;;;;;;;0.82;0.63;;;6.90;99.90;;;;;;5032825;28;20067;-84
2021/03/13 07:42:49;;;;;;;0.05;0.05;;;7.20;99.90;;;;;;5034014;28;20413;-83
2021/03/13 07:45:18;;;;;;;0.00;0.00;;;7.20;99.90;;;;;;5011088;28;20022;-83
2021/03/13 07:47:44;;;;;;;0.98;0.35;;;7.10;99.90;;;;;;5015340;28;20033;-87
2021/03/13 07:50:12;;;;;;;0.38;0.38;;;7.10;99.90;;;;;;5014192;28;20029;-80
2021/03/13 07:52:39;;;;;;;0.10;0.10;;;7.10;99.90;;;;;;5032441;28;20109;-82
2021/03/13 07:55:16;;;;;;;0.88;0.65;;;7.10;99.90;;;;;;5025359;28;20026;-77
2021/03/13 07:57:43;;;;;;;;;;;7.10;99.90;;;;;;5032118;28;20439;-78
2021/03/13 08:00:09;;;;;;;9.65;1.75;;;7.10;99.90;;;;;;5032759;28;19909;-83
2021/03/13 08:02:37;;;;;;;0.22;0.22;;;7.10;99.90;;;;;;5033659;28;20341;-81
2021/03/13 08:05:16;;;;;;;0.20;0.20;;;7.10;99.90;;;;;;5031492;28;20065;-80
2021/03/13 08:07:58;;;;;;;0.35;0.35;;;7.10;99.90;;;;;;5013506;28;20036;-81
2021/03/13 08:10:53;;;;;;;1.20;1.10;;;7.10;99.90;;;;;;5031199;28;20221;-79
2021/03/13 08:13:28;;;;;;;1.17;1.08;;;7.10;99.90;;;;;;5016983;28;20419;-78
2021/03/13 08:16:04;;;;;;;3.50;0.63;;;7.10;99.90;;;;;;5035259;28;20076;-89
2021/03/13 08:18:50;;;;;;;0.75;0.60;;;7.10;99.90;;;;;;5019367;28;20336;-77
2021/03/13 08:21:21;;;;;;;1.25;1.10;;;7.10;99.90;;;;;;5036463;28;20028;-81
2021/03/13 08:23:59;;;;;;;3.20;0.80;;;7.00;99.90;;;;;;5035286;28;20421;-78
2021/03/13 08:26:34;;;;;;;0.47;0.47;;;7.00;99.90;;;;;;5018621;28;20033;-76
2021/03/13 08:29:04;;;;;;;0.17;0.17;;;7.00;99.90;;;;;;5037689;28;20367;-82
2021/03/13 08:31:36;;;;;;;0.75;0.43;;;7.00;99.90;;;;;;5013551;28;20416;-81
2021/03/13 08:34:04;;;;;;;4.15;0.77;;;7.00;99.90;;;;;;5036510;28;20049;-83
2021/03/13 08:36:39;;;;;;;0.63;0.43;;;7.00;99.90;;;;;;5033963;28;20451;-84
2021/03/13 08:39:07;;;;;;;1.33;1.17;;;7.10;99.90;;;;;;5012171;28;20022;-82
2021/03/13 08:44:20;;;;;;;0.40;0.40;;;7.20;99.90;;;;;;5033604;28;20091;-80
2021/03/13 08:47:06;;;;;;;5.55;0.98;;;7.20;99.90;;;;;;5016708;28;20037;-86
2021/03/13 08:49:31;;;;;;;4.32;1.95;;;7.20;99.90;;;;;;5035497;28;20298;-83
2021/03/13 08:52:03;;;;;;;14.15;3.42;;;7.20;99.90;;;;;;5032889;28;20048;-86
2021/03/13 08:54:41;;;;;;;18.88;0.52;;;7.20;99.90;;;;;;5034911;28;20071;-83
2021/03/13 08:57:16;;;;;;;0.50;0.50;;;7.40;99.90;;;;;;5017627;28;20040;-78
2021/03/13 08:59:44;;;;;;;11.68;1.30;;;7.40;99.90;;;;;;5033644;28;20113;-81
2021/03/13 09:02:13;;;;;;;0.55;0.52;;;7.40;99.90;;;;;;5035821;28;20671;-90
2021/03/13 09:04:43;;;;;;;3.30;1.08;;;7.50;99.90;;;;;;5036073;28;20090;-79
2021/03/13 09:07:10;;;;;;;1.40;0.70;;;7.70;99.90;;;;;;5034941;28;20025;-86
2021/03/13 09:09:37;;;;;;;;;;;7.60;99.90;;;;;;5035866;28;20026;-81
2021/03/13 09:12:08;;;;;;;0.45;0.45;;;7.60;99.90;;;;;;5028049;28;19905;-80
2021/03/13 09:14:42;;;;;;;2.10;1.13;;;7.50;99.90;;;;;;5032132;28;20105;-81
2021/03/13 09:17:19;;;;;;;1.23;0.88;;;7.50;99.90;;;;;;5022049;28;20029;-78
2021/03/13 09:19:47;;;;;;;0.98;0.93;;;7.50;99.90;;;;;;5006242;28;20076;-83
2021/03/13 09:22:14;;;;;;;0.45;0.45;;;7.60;99.90;;;;;;5017710;28;20029;-78
2021/03/13 09:24:41;;;;;;;0.68;0.68;;;7.50;99.90;;;;;;5016033;28;20348;-87
2021/03/13 09:27:07;;;;;;;0.77;0.77;;;7.60;99.90;;;;;;5017653;28;20045;-78
2021/03/13 09:29:41;;;;;;;1.65;0.98;;;7.50;99.90;;;;;;5015113;28;20116;-77
2021/03/13 09:32:08;;;;;;;0.45;0.45;;;7.50;99.90;;;;;;5036119;28;20038;-77
2021/03/13 09:34:34;;;;;;;;;;;7.50;99.90;;;;;;5033332;28;20489;-78
2021/03/13 09:37:09;;;;;;;1.00;1.00;;;7.40;99.90;;;;;;5023469;28;19939;-80
2021/03/13 09:39:34;;;;;;;2.70;1.33;;;7.40;99.90;;;;;;5023084;28;20030;-87
2021/03/13 09:42:18;;;;;;;0.63;0.63;;;7.30;99.90;;;;;;5017359;28;20302;-91
2021/03/13 09:44:55;;;;;;;0.10;0.10;;;7.40;99.90;;;;;;5035302;28;20030;-77
2021/03/13 09:47:34;;;;;;;6.68;2.08;;;7.60;99.90;;;;;;5011925;28;20069;-80
2021/03/13 09:50:28;;;;;;;5.72;1.13;;;7.90;99.90;;;;;;5016849;28;20040;-89
2021/03/13 09:52:53;;;;;;;0.45;0.45;;;7.90;99.90;;;;;;5013833;28;20057;-80
2021/03/13 09:55:22;;;;;;;1.67;1.57;;;7.80;99.90;;;;;;5009298;28;20053;-83
2021/03/13 09:57:49;;;;;;;1.85;0.60;;;7.80;99.90;;;;;;5032460;28;20416;-82
2021/03/13 10:00:33;;;;;;;0.40;0.40;;;7.70;99.90;;;;;;5013435;28;20487;-88
2021/03/13 10:03:00;;;;;;;4.72;1.05;;;7.60;99.90;;;;;;5016308;28;20116;-82
2021/03/13 10:05:28;;;;;;;0.90;0.75;;;7.50;99.90;;;;;;5013635;28;20033;-79
2021/03/13 10:07:54;;;;;;;8.10;0.80;;;7.50;99.90;;;;;;5013376;28;20036;-89
2021/03/13 10:10:22;;;;;;;0.33;0.33;;;7.60;99.90;;;;;;5030815;28;20018;-83
2021/03/13 10:12:49;;;;;;;0.30;0.30;;;7.90;99.90;;;;;;5032332;28;20108;-85
2021/03/13 10:15:15;;;;;;;17.63;2.17;;;8.10;99.90;;;;;;5033365;28;20025;-84
2021/03/13 10:17:57;;;;;;;4.53;2.10;;;8.20;99.90;;;;;;5011579;28;20034;-81
2021/03/13 10:20:29;;;;;;;1.30;0.77;;;8.20;99.90;;;;;;5015310;28;20033;-89
2021/03/13 10:22:55;;;;;;;2.50;1.48;;;8.20;99.90;;;;;;5015115;28;20029;-85
2021/03/13 10:25:21;;;;;;;1.00;1.00;;;8.20;99.90;;;;;;5034125;28;20032;-80
2021/03/13 10:27:47;;;;;;;4.60;2.03;;;8.10;99.90;;;;;;5012678;28;20033;-83
2021/03/13 10:30:13;;;;;;;2.22;1.48;;;7.90;99.90;;;;;;5032112;28;20067;-78
2021/03/13 10:32:40;;;;;;;1.00;0.40;;;7.90;99.90;;;;;;5034143;28;20080;-90
2021/03/13 10:35:13;;;;;;;0.77;0.65;;;7.90;99.90;;;;;;5031832;28;20412;-80
2021/03/13 10:37:41;;;;;;;4.20;0.80;;;7.90;99.90;;;;;;5030893;28;20428;-88
2021/03/13 10:40:28;;;;;;;3.92;1.60;;;7.90;99.90;;;;;;5033317;28;20063;-78
2021/03/13 10:43:14;;;;;;;5.50;0.63;;;8.00;99.90;;;;;;5027836;28;20025;-81
2021/03/13 10:46:00;;;;;;;5.25;0.35;;;7.90;99.90;;;;;;5028682;28;20033;-79
2021/03/13 10:48:31;;;;;;;0.10;0.10;;;8.00;99.90;;;;;;5013923;28;20097;-82
2021/03/13 10:50:58;;;;;;;3.05;1.88;;;8.00;99.90;;;;;;5014416;28;20124;-77
2021/03/13 10:53:30;;;;;;;;;;;8.10;99.90;;;;;;5018743;28;20364;-87
2021/03/13 10:56:05;;;;;;;0.10;0.10;;;8.20;99.90;;;;;;5015442;28;19913;-78
2021/03/13 10:58:32;;;;;;;0.10;0.10;;;8.10;99.90;;;;;;5012303;28;20035;-81
2021/03/13 11:00:59;;;;;;;3.28;1.58;;;8.30;99.90;;;;;;5032531;28;20028;-83
2021/03/13 11:03:26;;;;;;;14.13;0.98;;;8.40;99.90;;;;;;5017629;28;20503;-85
2021/03/13 11:05:52;;;;;;;0.05;0.05;;;8.40;99.90;;;;;;5029706;28;20029;-85
2021/03/13 11:08:23;;;;;;;0.38;0.38;;;8.40;99.90;;;;;;5012476;28;20116;-82
2021/03/13 11:10:50;;;;;;;1.38;0.70;;;8.50;99.90;;;;;;5013216;28;20117;-86
2021/03/13 11:13:18;;;;;;;1.08;0.35;;;8.50;99.90;;;;;;5012064;28;20034;-87
2021/03/13 11:15:44;;;;;;;1.05;0.75;;;8.40;99.90;;;;;;5032964;28;20321;-79
2021/03/13 11:18:10;;;;;;;1.75;1.65;;;8.50;99.90;;;;;;5032215;28;20029;-83
2021/03/13 11:20:36;;;;;;;7.13;1.27;;;8.50;99.90;;;;;;5013664;28;20141;-79
2021/03/13 11:23:02;;;;;;;0.43;0.32;;;8.60;99.90;;;;;;5015836;28;20074;-81
2021/03/13 11:25:29;;;;;;;3.10;1.10;;;8.50;99.90;;;;;;5016663;28;20026;-76
2021/03/13 11:27:55;;;;;;;7.72;1.27;;;8.40;99.90;;;;;;5013072;28;20084;-82
2021/03/13 11:30:21;;;;;;;24.00;1.98;;;8.50;99.90;;;;;;5015516;28;20061;-83
2021/03/13 11:32:47;;;;;;;0.40;0.40;;;8.70;99.90;;;;;;5006787;28;20099;-79
2021/03/13 11:35:13;;;;;;;1.33;0.53;;;8.80;99.90;;;;;;5017398;28;20056;-85
2021/03/13 11:37:40;;;;;;;1.17;1.17;;;8.80;99.90;;;;;;5014641;28;20048;-82
2021/03/13 11:40:09;;;;;;;3.58;0.52;;;8.80;99.90;;;;;;5014437;28;20091;-85
2021/03/13 11:42:35;;;;;;;2.55;0.95;;;8.70;99.90;;;;;;5031221;28;20458;-89
2021/03/13 11:45:02;;;;;;;1.10;0.75;;;8.80;99.90;;;;;;5014909;28;20037;-80
2021/03/13 11:47:28;;;;;;;0.63;0.52;;;9.00;99.90;;;;;;5033611;28;20061;-80
2021/03/13 11:49:55;;;;;;;3.00;1.60;;;9.00;99.90;;;;;;5018869;28;20115;-86
2021/03/13 11:52:24;;;;;;;0.52;0.20;;;9.10;99.90;;;;;;5017696;28;20028;-78
2021/03/13 11:54:51;;;;;;;1.15;0.10;;;9.00;99.90;;;;;;5015703;28;20072;-83
2021/03/13 11:57:17;;;;;;;1.25;1.15;;;9.00;99.90;;;;;;5018843;28;20096;-78
2021/03/13 11:59:48;;;;;;;0.47;0.47;;;8.90;99.90;;;;;;5022435;28;20037;-84
2021/03/13 12:02:15;;;;;;;0.22;0.22;;;8.80;99.90;;;;;;5012741;28;20363;-86
2021/03/13 12:04:42;;;;;;;3.53;1.52;;;8.80;99.90;;;;;;5033508;28;20049;-84
2021/03/13 12:07:08;;;;;;;19.30;1.23;;;8.70;99.90;;;;;;5018951;28;20099;-77
2021/03/13 12:09:35;;;;;;;1.03;0.67;;;8.90;99.90;;;;;;5034073;28;20392;-77
2021/03/13 12:12:01;;;;;;;0.20;0.20;;;8.90;99.90;;;;;;5035823;28;20029;-84
2021/03/13 12:14:30;;;;;;;4.88;1.20;;;8.90;99.90;;;;;;5017423;28;20438;-82
2021/03/13 12:16:55;;;;;;;1.17;0.90;;;9.10;99.90;;;;;;5012426;28;20373;-80
2021/03/13 12:19:21;;;;;;;0.57;0.50;;;9.20;99.90;;;;;;5036489;28;20053;-82
2021/03/13 12:21:49;;;;;;;0.30;0.30;;;9.20;99.90;;;;;;5032377;28;20026;-77
2021/03/13 12:24:15;;;;;;;4.40;0.47;;;9.30;99.90;;;;;;5018163;28;20026;-77
2021/03/13 12:26:41;;;;;;;10.70;0.70;;;9.30;99.90;;;;;;5022661;28;20029;-79
2021/03/13 12:29:07;;;;;;;0.43;0.43;;;9.20;99.90;;;;;;5011935;28;20036;-76
2021/03/13 12:31:32;;;;;;;11.45;1.75;;;9.10;99.90;;;;;;5019012;28;20309;-76
2021/03/13 12:33:58;;;;;;;0.35;0.28;;;9.00;99.90;;;;;;5036883;28;20061;-73
2021/03/13 12:36:24;;;;;;;1.15;0.30;;;8.90;99.90;;;;;;5015518;28;20053;-87
2021/03/13 12:38:50;;;;;;;0.52;0.47;;;8.80;99.90;;;;;;5036563;28;20028;-87
2021/03/13 12:41:16;;;;;;;2.42;0.90;;;8.80;99.90;;;;;;5009411;28;20030;-79
2021/03/13 12:43:42;;;;;;;24.10;0.40;;;8.80;99.90;;;;;;5030161;28;20038;-77
2021/03/13 12:46:14;;;;;;;0.10;0.10;;;8.80;99.90;;;;;;5033356;28;20684;-75
2021/03/13 12:48:40;;;;;;;0.10;0.10;;;8.80;99.90;;;;;;5007203;28;20048;-79
2021/03/13 12:51:06;;;;;;;0.20;0.20;;;8.90;99.90;;;;;;5015384;28;20475;-80
2021/03/13 12:53:31;;;;;;;0.00;0.00;;;8.80;99.90;;;;;;5018186;28;20018;-80
2021/03/13 12:55:57;;;;;;;0.30;0.30;;;8.80;99.90;;;;;;5018125;28;20018;-84
2021/03/13 12:58:23;;;;;;;4.93;1.23;;;8.80;99.90;;;;;;5014207;28;20416;-78
2021/03/13 13:00:50;;;;;;;1.08;1.08;;;8.80;99.90;;;;;;5035541;28;20080;-80
2021/03/13 13:03:16;;;;;;;6.70;1.92;;;8.70;99.90;;;;;;5015719;28;20412;-81
2021/03/13 13:05:42;;;;;;;0.57;0.57;;;8.80;99.90;;;;;;5018070;28;20033;-85
2021/03/13 13:08:08;;;;;;;2.05;0.20;;;8.80;99.90;;;;;;5015655;28;20302;-84
2021/03/13 13:10:34;;;;;;;2.97;0.77;;;8.70;99.90;;;;;;5017881;28;20040;-76